Time;durP1;ratioP1;P1;durP2;ratioP2;P2;SDS_P1;SDS_P2;PMS_P1;PMS_P2;Temp;Humidity;BMP_temperature;BMP_pressure;BME280_temperature;BME280_humidity;BME280_pressure;Samples;Min_cycle;Max_cycle;Signal;HPM_P1;HPM_P2
2020/12/21 00:01:53;;;;;;;11.67;8.83;;;;;;;6.49;100.00;101319.25;4975015;28;20213;-73
2020/12/21 00:04:18;;;;;;;12.83;9.90;;;;;;;6.43;100.00;101320.16;4982039;28;20542;-73
2020/12/21 00:06:44;;;;;;;16.07;9.60;;;;;;;6.41;100.00;101319.56;5006417;28;20287;-72
2020/12/21 00:09:10;;;;;;;13.20;9.50;;;;;;;6.42;100.00;101322.03;5006964;28;20603;-73
2020/12/21 00:11:36;;;;;;;14.77;9.43;;;;;;;6.44;100.00;101319.13;4974858;28;20225;-73
2020/12/21 00:14:03;;;;;;;15.93;9.83;;;;;;;6.54;100.00;101310.22;4994857;28;20189;-72
2020/12/21 00:16:38;;;;;;;16.27;9.47;;;;;;;6.36;100.00;101316.75;4977354;28;20229;-74
2020/12/21 00:19:04;;;;;;;14.20;9.33;;;;;;;6.48;100.00;101314.91;4986810;28;20185;-73
2020/12/21 00:21:30;;;;;;;15.17;9.77;;;;;;;6.47;100.00;101324.06;5010185;28;20220;-72
2020/12/21 00:23:55;;;;;;;15.00;10.13;;;;;;;6.39;100.00;101316.25;5011523;28;20182;-73
2020/12/21 00:26:21;;;;;;;16.40;10.30;;;;;;;6.31;100.00;101324.69;4993960;28;20233;-73
2020/12/21 00:28:47;;;;;;;17.30;10.40;;;;;;;6.40;100.00;101321.44;4979068;28;20240;-73
2020/12/21 00:31:25;;;;;;;15.30;9.93;;;;;;;6.48;100.00;101309.50;4994994;28;20230;-73
2020/12/21 00:33:51;;;;;;;13.10;9.20;;;;;;;6.37;100.00;101312.97;4985927;28;20194;-73
2020/12/21 00:36:19;;;;;;;13.93;10.00;;;;;;;6.37;100.00;101313.78;4979565;28;20249;-73
2020/12/21 00:38:45;;;;;;;18.03;9.63;;;;;;;6.34;100.00;101324.25;4980607;28;20244;-73
2020/12/21 00:41:16;;;;;;;14.93;9.77;;;;;;;6.57;100.00;101325.97;4978018;28;20303;-73
2020/12/21 00:43:42;;;;;;;13.87;9.83;;;;;;;6.60;100.00;101319.28;4962272;28;20190;-73
2020/12/21 00:46:27;;;;;;;12.00;9.23;;;;;;;6.69;100.00;101321.41;4984924;28;20220;-73
2020/12/21 00:48:55;;;;;;;14.20;9.60;;;;;;;6.84;100.00;101316.41;4971198;28;20534;-73
2020/12/21 00:51:21;;;;;;;12.60;8.83;;;;;;;6.89;100.00;101308.44;4961703;28;20308;-73
2020/12/21 00:53:47;;;;;;;9.83;7.70;;;;;;;6.78;100.00;101317.34;4994096;28;20254;-74
2020/12/21 00:56:16;;;;;;;10.33;7.67;;;;;;;6.88;100.00;101306.78;4976636;28;20226;-73
2020/12/21 00:58:41;;;;;;;10.37;7.93;;;;;;;6.94;100.00;101316.66;4962545;28;20189;-73
2020/12/21 01:01:20;;;;;;;10.87;7.83;;;;;;;6.86;100.00;101314.28;4992994;28;20251;-73
2020/12/21 01:03:50;;;;;;;12.00;7.50;;;;;;;6.89;100.00;101324.63;4963481;28;20248;-74
2020/12/21 01:06:16;;;;;;;9.40;6.60;;;;;;;6.87;100.00;101321.34;4981860;28;20233;-73
2020/12/21 01:08:44;;;;;;;12.27;7.03;;;;;;;6.73;100.00;101313.69;4993787;28;20236;-73
2020/12/21 01:11:15;;;;;;;13.37;7.37;;;;;;;6.90;100.00;101312.78;4992950;28;20213;-72
2020/12/21 01:13:41;;;;;;;14.70;7.67;;;;;;;6.83;100.00;101317.47;4993800;28;20269;-73
2020/12/21 01:16:07;;;;;;;10.87;6.70;;;;;;;6.91;100.00;101320.66;4992802;28;20308;-73
2020/12/21 01:18:33;;;;;;;11.60;7.30;;;;;;;6.90;100.00;101326.28;4971176;28;20186;-73
2020/12/21 01:20:59;;;;;;;11.33;7.37;;;;;;;6.83;100.00;101328.28;4957002;28;20325;-73
2020/12/21 01:23:27;;;;;;;10.83;7.03;;;;;;;6.86;100.00;101325.09;4973932;28;20191;-73
2020/12/21 01:25:53;;;;;;;10.27;7.20;;;;;;;6.83;100.00;101336.38;4957072;28;20256;-73
2020/12/21 01:28:18;;;;;;;8.23;6.70;;;;;;;6.90;100.00;101326.28;4957954;28;20194;-73
2020/12/21 01:30:47;;;;;;;11.47;6.60;;;;;;;6.72;100.00;101329.06;4957166;28;20222;-73
2020/12/21 01:33:13;;;;;;;11.70;6.80;;;;;;;6.63;100.00;101332.31;4980743;28;20209;-73
2020/12/21 01:35:39;;;;;;;10.30;7.20;;;;;;;6.75;100.00;101325.06;4975687;28;20249;-73
2020/12/21 01:38:05;;;;;;;11.53;6.67;;;;;;;6.62;100.00;101334.19;4977119;28;20182;-73
2020/12/21 01:40:31;;;;;;;12.63;6.73;;;;;;;6.68;100.00;101332.44;4993232;28;20213;-73
2020/12/21 01:42:56;;;;;;;10.93;7.27;;;;;;;6.53;100.00;101319.38;4978510;28;20300;-73
2020/12/21 01:45:24;;;;;;;11.57;7.30;;;;;;;6.58;100.00;101332.19;4976815;28;20232;-74
2020/12/21 01:47:50;;;;;;;9.73;7.73;;;;;;;6.53;100.00;101329.34;4993937;28;20201;-73
2020/12/21 01:50:15;;;;;;;11.40;7.27;;;;;;;6.30;100.00;101331.13;4942360;28;20193;-73
2020/12/21 01:52:41;;;;;;;10.93;7.00;;;;;;;6.29;100.00;101332.19;4958192;28;20210;-73
2020/12/21 01:55:07;;;;;;;12.70;7.20;;;;;;;6.30;100.00;101334.66;4941045;28;20196;-73
2020/12/21 01:57:33;;;;;;;13.77;7.97;;;;;;;6.36;100.00;101319.44;4958293;28;20202;-74
2020/12/21 02:00:01;;;;;;;12.10;7.47;;;;;;;6.46;100.00;101334.00;4957859;28;20190;-74
2020/12/21 02:02:26;;;;;;;13.07;7.63;;;;;;;6.28;100.00;101333.22;4965750;28;20205;-73
2020/12/21 02:04:52;;;;;;;12.27;7.63;;;;;;;6.16;100.00;101326.97;4989196;28;20201;-73
2020/12/21 02:07:19;;;;;;;10.13;7.13;;;;;;;6.26;100.00;101327.25;4956475;28;20229;-73
2020/12/21 02:09:50;;;;;;;12.83;8.07;;;;;;;6.28;100.00;101325.97;4957965;28;20194;-74
2020/12/21 02:12:18;;;;;;;10.50;7.43;;;;;;;6.15;100.00;101330.69;4956354;28;20259;-73
2020/12/21 02:14:43;;;;;;;10.70;7.43;;;;;;;6.08;100.00;101324.59;4956433;28;20269;-73
2020/12/21 02:17:11;;;;;;;12.40;7.07;;;;;;;6.02;100.00;101324.66;4990888;28;20679;-73
2020/12/21 02:19:40;;;;;;;12.33;7.63;;;;;;;6.01;100.00;101334.63;4962070;28;20237;-73
2020/12/21 02:22:11;;;;;;;12.30;6.93;;;;;;;5.97;100.00;101324.50;4972394;28;20214;-73
2020/12/21 02:24:40;;;;;;;15.40;7.27;;;;;;;5.96;100.00;101325.56;4956894;28;20205;-73
2020/12/21 02:27:05;;;;;;;15.80;8.57;;;;;;;6.06;100.00;101334.75;4939912;28;20222;-73
2020/12/21 02:29:34;;;;;;;15.23;8.03;;;;;;;6.12;100.00;101323.09;4956697;28;20565;-73
2020/12/21 02:32:01;;;;;;;13.20;8.07;;;;;;;6.13;100.00;101333.66;4959416;28;20238;-72
2020/12/21 02:34:27;;;;;;;11.53;7.80;;;;;;;6.25;100.00;101320.22;4969766;28;20571;-73
2020/12/21 02:36:56;;;;;;;16.00;8.07;;;;;;;6.32;100.00;101324.47;4971887;28;20233;-73
2020/12/21 02:39:24;;;;;;;11.20;7.60;;;;;;;6.25;100.00;101328.31;4972920;28;20185;-73
2020/12/21 02:41:50;;;;;;;12.13;7.63;;;;;;;6.28;100.00;101325.13;4955463;28;20222;-73
2020/12/21 02:44:16;;;;;;;16.53;8.07;;;;;;;6.30;100.00;101314.94;4955968;28;20182;-73
2020/12/21 02:46:43;;;;;;;12.77;7.70;;;;;;;6.42;100.00;101326.63;4970097;28;20776;-73
2020/12/21 02:49:11;;;;;;;11.97;7.43;;;;;;;6.58;100.00;101324.91;4967501;28;20181;-73
2020/12/21 02:51:37;;;;;;;14.27;8.57;;;;;;;6.53;100.00;101324.75;4974809;28;20228;-73
2020/12/21 02:54:03;;;;;;;13.13;8.20;;;;;;;6.56;100.00;101324.31;5008169;28;20222;-73
2020/12/21 02:56:29;;;;;;;12.43;8.10;;;;;;;6.64;100.00;101321.28;4974402;28;20825;-73
2020/12/21 02:58:57;;;;;;;14.87;8.43;;;;;;;6.56;100.00;101329.72;4975620;28;20185;-73
2020/12/21 03:01:23;;;;;;;12.90;8.00;;;;;;;6.57;100.00;101331.38;4990543;28;20248;-73
2020/12/21 03:03:49;;;;;;;13.43;8.20;;;;;;;6.61;100.00;101332.56;4975050;28;20583;-73
2020/12/21 03:06:15;;;;;;;15.57;8.27;;;;;;;6.57;100.00;101330.53;4986986;28;20218;-73
2020/12/21 03:08:40;;;;;;;11.70;7.87;;;;;;;6.60;100.00;101336.28;4972322;28;20216;-73
2020/12/21 03:11:11;;;;;;;11.83;8.43;;;;;;;6.55;100.00;101322.66;4987535;28;20218;-73
2020/12/21 03:13:37;;;;;;;12.77;7.87;;;;;;;6.73;100.00;101324.47;4988142;28;20225;-73
2020/12/21 03:16:04;;;;;;;13.33;7.93;;;;;;;6.73;100.00;101328.00;4980666;28;20257;-73
2020/12/21 03:18:29;;;;;;;13.27;7.90;;;;;;;6.88;100.00;101325.69;4974955;28;20185;-73
2020/12/21 03:20:58;;;;;;;10.67;8.20;;;;;;;6.84;100.00;101331.78;4990676;28;20213;-73
2020/12/21 03:23:24;;;;;;;11.90;7.83;;;;;;;6.82;100.00;101336.59;5006878;28;20173;-73
2020/12/21 03:25:49;;;;;;;12.50;7.87;;;;;;;6.75;100.00;101333.97;4989971;28;20221;-73
2020/12/21 03:28:15;;;;;;;12.93;7.60;;;;;;;6.89;100.00;101330.03;4975238;28;20656;-73
2020/12/21 03:30:41;;;;;;;8.67;6.97;;;;;;;6.95;100.00;101324.53;4990470;28;20777;-73
2020/12/21 03:33:09;;;;;;;11.83;7.40;;;;;;;7.08;100.00;101320.78;4977286;28;20209;-72
2020/12/21 03:35:34;;;;;;;13.07;7.43;;;;;;;7.04;100.00;101325.00;4984528;28;20209;-74
2020/12/21 03:38:00;;;;;;;12.00;7.23;;;;;;;7.00;100.00;101310.34;4991115;28;20594;-74
2020/12/21 03:40:26;;;;;;;10.37;7.13;;;;;;;7.04;100.00;101312.31;4990367;28;20595;-75
2020/12/21 03:42:54;;;;;;;12.43;6.87;;;;;;;7.09;100.00;101317.03;4974400;28;20546;-74
2020/12/21 03:45:20;;;;;;;11.57;6.57;;;;;;;7.09;100.00;101320.56;4986431;28;20589;-75
2020/12/21 03:47:48;;;;;;;12.03;6.40;;;;;;;7.16;100.00;101320.44;4967580;28;20198;-73
2020/12/21 03:50:13;;;;;;;10.43;6.53;;;;;;;7.09;100.00;101319.75;4990419;28;20225;-73
2020/12/21 03:52:39;;;;;;;11.90;6.90;;;;;;;7.21;100.00;101321.38;4990877;28;20237;-73
2020/12/21 03:55:05;;;;;;;11.30;7.30;;;;;;;7.14;100.00;101326.09;4974369;28;20230;-74
2020/12/21 03:57:31;;;;;;;12.03;6.70;;;;;;;7.28;100.00;101321.28;4990228;28;20644;-74
2020/12/21 03:59:56;;;;;;;10.90;6.50;;;;;;;7.33;100.00;101312.22;4958579;28;20174;-74
2020/12/21 04:02:22;;;;;;;7.83;6.07;;;;;;;7.11;100.00;101314.94;4990952;28;20217;-74
2020/12/21 04:04:48;;;;;;;10.00;6.07;;;;;;;7.05;100.00;101311.28;4982278;28;20209;-73
2020/12/21 04:07:14;;;;;;;9.40;6.70;;;;;;;7.10;100.00;101316.78;4989958;28;20221;-74
2020/12/21 04:09:39;;;;;;;8.57;6.13;;;;;;;7.23;100.00;101313.03;4974467;28;20529;-75
2020/12/21 04:12:05;;;;;;;9.47;5.87;;;;;;;7.16;100.00;101301.53;4990148;28;20256;-74
2020/12/21 04:14:30;;;;;;;13.20;6.03;;;;;;;7.35;100.00;101307.41;4973808;28;20197;-72
2020/12/21 04:17:01;;;;;;;10.60;6.00;;;;;;;7.17;100.00;101300.47;4981787;28;20229;-72
2020/12/21 04:19:27;;;;;;;10.80;6.37;;;;;;;7.17;100.00;101295.06;4990074;28;20186;-72
2020/12/21 04:21:55;;;;;;;8.30;5.47;;;;;;;7.24;100.00;101295.78;4958731;28;20260;-72
2020/12/21 04:24:22;;;;;;;9.93;5.80;;;;;;;7.32;100.00;101302.47;4990073;28;20174;-72
2020/12/21 04:26:47;;;;;;;10.73;5.60;;;;;;;7.27;100.00;101295.31;4990298;28;20248;-73
2020/12/21 04:29:13;;;;;;;9.37;5.60;;;;;;;7.20;100.00;101297.28;5007006;28;20185;-72
2020/12/21 04:31:39;;;;;;;11.23;5.60;;;;;;;7.26;100.00;101305.28;4974007;28;20264;-73
2020/12/21 04:34:07;;;;;;;10.33;6.03;;;;;;;7.17;100.00;101305.88;4982708;28;20190;-73
2020/12/21 04:36:33;;;;;;;12.00;5.63;;;;;;;7.13;100.00;101302.81;4989127;28;20237;-72
2020/12/21 04:39:02;;;;;;;10.90;5.77;;;;;;;7.14;100.00;101307.19;4991135;28;20194;-73
2020/12/21 04:41:30;;;;;;;9.83;5.40;;;;;;;7.25;100.00;101300.94;4989917;28;20229;-73
2020/12/21 04:44:00;;;;;;;11.70;6.00;;;;;;;7.17;100.00;101305.88;5006823;28;20193;-71
2020/12/21 04:46:26;;;;;;;9.67;5.67;;;;;;;7.26;100.00;101304.47;4980030;28;20226;-72
2020/12/21 04:48:51;;;;;;;10.83;5.83;;;;;;;7.17;100.00;101314.00;4971753;28;20189;-73
2020/12/21 04:51:20;;;;;;;10.63;5.90;;;;;;;7.14;100.00;101312.59;4957842;28;20225;-72
2020/12/21 04:53:45;;;;;;;11.43;6.40;;;;;;;7.02;100.00;101316.31;4958785;28;20285;-73
2020/12/21 04:56:15;;;;;;;10.57;5.97;;;;;;;7.08;100.00;101310.78;4986403;28;20229;-71
2020/12/21 04:58:45;;;;;;;13.47;5.90;;;;;;;7.02;100.00;101319.84;4977724;28;20186;-72
2020/12/21 05:01:13;;;;;;;12.20;5.97;;;;;;;6.95;100.00;101318.31;4977433;28;20733;-74
2020/12/21 05:03:39;;;;;;;13.23;6.03;;;;;;;7.02;100.00;101319.03;4966957;28;20183;-72
2020/12/21 05:06:07;;;;;;;10.73;5.73;;;;;;;6.85;100.00;101319.91;4991882;28;20251;-72
2020/12/21 05:08:34;;;;;;;14.80;6.50;;;;;;;6.92;100.00;101310.66;5010063;28;20560;-71
2020/12/21 05:11:01;;;;;;;14.80;6.27;;;;;;;6.92;100.00;101314.19;4993358;28;20710;-73
2020/12/21 05:13:27;;;;;;;12.17;6.53;;;;;;;6.82;100.00;101313.13;5010001;28;20214;-73
2020/12/21 05:15:55;;;;;;;13.63;6.27;;;;;;;6.95;100.00;101302.09;4991992;28;20228;-73
2020/12/21 05:18:34;;;;;;;9.70;6.27;;;;;;;6.92;100.00;101313.34;4982226;28;20198;-73
2020/12/21 05:21:07;;;;;;;9.17;5.73;;;;;;;7.13;100.00;101310.13;4957796;28;20233;-73
2020/12/21 05:23:33;;;;;;;12.03;6.60;;;;;;;7.04;100.00;101311.50;4975063;28;20611;-73
2020/12/21 05:26:04;;;;;;;11.33;6.07;;;;;;;7.17;100.00;101306.69;4972916;28;20237;-73
2020/12/21 05:28:32;;;;;;;8.93;5.73;;;;;;;7.04;100.00;101306.91;4974366;28;20201;-73
2020/12/21 05:31:02;;;;;;;11.43;6.30;;;;;;;7.09;100.00;101311.66;4973353;28;20241;-73
2020/12/21 05:33:30;;;;;;;10.37;6.20;;;;;;;7.10;100.00;101310.56;4983226;28;20225;-73
2020/12/21 05:35:59;;;;;;;9.30;5.60;;;;;;;7.09;100.00;101319.75;4975195;28;20238;-73
2020/12/21 05:38:32;;;;;;;9.40;5.57;;;;;;;7.17;100.00;101316.69;4958439;28;20191;-72
2020/12/21 05:41:12;;;;;;;10.00;5.80;;;;;;;7.00;100.00;101327.34;4957127;28;20221;-73
2020/12/21 05:43:41;;;;;;;11.20;5.80;;;;;;;6.93;100.00;101315.84;4957926;28;20643;-73
2020/12/21 05:46:13;;;;;;;9.60;5.93;;;;;;;7.06;100.00;101310.22;4980431;28;20269;-73
2020/12/21 05:48:45;;;;;;;10.23;5.40;;;;;;;7.08;100.00;101315.38;4997345;28;20182;-73
2020/12/21 05:51:11;;;;;;;10.13;5.13;;;;;;;7.12;100.00;101311.16;4972873;28;20300;-73
2020/12/21 05:53:44;;;;;;;9.13;5.20;;;;;;;7.01;100.00;101311.97;4957098;28;20283;-72
2020/12/21 05:56:12;;;;;;;9.17;5.10;;;;;;;6.91;100.00;101311.72;4940566;28;20230;-73
2020/12/21 05:58:39;;;;;;;10.97;5.47;;;;;;;6.99;100.00;101319.47;4973453;28;20186;-73
2020/12/21 06:01:06;;;;;;;12.03;4.93;;;;;;;6.97;100.00;101321.59;4972741;28;20222;-73
2020/12/21 06:03:42;;;;;;;8.63;4.73;;;;;;;6.82;100.00;101323.09;4970967;28;20221;-73
2020/12/21 06:06:21;;;;;;;10.47;5.03;;;;;;;6.86;100.00;101321.59;4956201;28;20217;-73
2020/12/21 06:09:06;;;;;;;8.83;4.77;;;;;;;6.87;100.00;101323.22;4974027;28;20197;-71
2020/12/21 06:11:34;;;;;;;11.13;5.00;;;;;;;6.59;100.00;101323.88;4957787;28;20226;-71
2020/12/21 06:14:06;;;;;;;12.20;5.20;;;;;;;6.77;100.00;101328.34;4973353;28;20171;-72
2020/12/21 06:16:38;;;;;;;9.57;4.47;;;;;;;6.57;100.00;101322.44;4986435;28;20269;-72
2020/12/21 06:19:13;;;;;;;10.30;4.50;;;;;;;6.68;100.00;101327.03;4953179;28;20281;-72
2020/12/21 06:21:47;;;;;;;10.00;4.70;;;;;;;6.61;100.00;101327.16;4960708;28;20225;-72
2020/12/21 06:24:23;;;;;;;7.83;4.73;;;;;;;6.47;100.00;101326.75;4944944;28;20178;-72
2020/12/21 06:26:52;;;;;;;10.13;4.77;;;;;;;6.38;100.00;101330.81;4954241;28;20213;-73
2020/12/21 06:29:27;;;;;;;14.27;8.20;;;;;;;6.35;100.00;101333.97;5006132;28;20269;-73
2020/12/21 06:31:54;;;;;;;14.50;10.17;;;;;;;6.36;100.00;101344.53;4990649;28;20240;-74
2020/12/21 06:34:29;;;;;;;10.73;4.87;;;;;;;6.19;100.00;101334.59;5108015;27;21233;-74
2020/12/21 06:37:02;;;;;;;11.47;4.50;;;;;;;6.16;100.00;101335.88;5091923;27;20222;-74
2020/12/21 06:39:27;;;;;;;11.87;5.03;;;;;;;6.14;100.00;101329.88;5081209;28;20659;-75
2020/12/21 06:42:05;;;;;;;9.30;4.87;;;;;;;6.07;100.00;101336.41;5085249;28;20669;-74
2020/12/21 06:44:33;;;;;;;13.13;4.80;;;;;;;6.05;100.00;101338.53;5050516;28;20182;-73
2020/12/21 06:46:59;;;;;;;12.50;5.27;;;;;;;5.94;100.00;101341.97;5061120;28;20268;-73
2020/12/21 06:49:25;;;;;;;11.00;4.97;;;;;;;5.88;100.00;101342.88;5070729;28;20565;-74
2020/12/21 06:51:51;;;;;;;10.73;4.53;;;;;;;5.83;100.00;101341.91;5035485;28;20744;-73
2020/12/21 06:54:17;;;;;;;10.07;4.73;;;;;;;5.89;100.00;101338.31;5066065;28;20214;-74
2020/12/21 06:56:46;;;;;;;13.60;4.93;;;;;;;5.84;100.00;101344.38;5068549;28;20248;-73
2020/12/21 06:59:16;;;;;;;10.37;4.80;;;;;;;5.76;100.00;101347.34;5054748;28;20270;-74
2020/12/21 07:01:45;;;;;;;15.20;5.10;;;;;;;5.74;100.00;101353.22;5047820;28;20229;-75
2020/12/21 07:04:18;;;;;;;12.10;5.33;;;;;;;5.75;100.00;101356.50;5097414;28;20698;-72
2020/12/21 07:06:47;;;;;;;13.47;5.50;;;;;;;5.69;100.00;101361.09;5105548;28;20600;-74
2020/12/21 07:09:21;;;;;;;12.40;5.93;;;;;;;5.84;100.00;101359.72;5056300;28;20178;-73
2020/12/21 07:11:52;;;;;;;9.87;5.70;;;;;;;5.73;100.00;101355.06;5088153;28;20217;-72
2020/12/21 07:14:17;;;;;;;14.90;7.10;;;;;;;5.69;100.00;101361.91;5072606;28;20615;-73
2020/12/21 07:16:43;;;;;;;11.77;6.10;;;;;;;5.83;100.00;101364.28;5071429;28;20249;-73
2020/12/21 07:19:10;;;;;;;12.63;6.80;;;;;;;5.69;100.00;101367.31;5061123;28;20205;-73
2020/12/21 07:21:37;;;;;;;11.77;6.50;;;;;;;5.74;100.00;101364.00;5074478;28;20213;-73
2020/12/21 07:24:05;;;;;;;12.83;6.07;;;;;;;5.66;100.00;101362.38;5047477;28;20167;-72
2020/12/21 07:26:33;;;;;;;10.23;6.83;;;;;;;5.70;100.00;101368.16;5031520;28;20214;-73
2020/12/21 07:28:59;;;;;;;12.43;6.50;;;;;;;5.84;100.00;101357.84;5050085;28;20264;-74
2020/12/21 07:31:24;;;;;;;13.77;6.53;;;;;;;5.81;100.00;101366.38;5042361;28;20598;-72
2020/12/21 07:33:56;;;;;;;14.87;6.53;;;;;;;5.62;100.00;101368.44;5064301;28;20211;-73
2020/12/21 07:36:23;;;;;;;13.93;6.63;;;;;;;5.64;100.00;101374.41;5060101;28;20226;-74
2020/12/21 07:38:53;;;;;;;12.37;6.87;;;;;;;5.59;100.00;101371.59;5045119;28;20202;-74
2020/12/21 07:41:23;;;;;;;11.30;7.07;;;;;;;5.62;100.00;101368.44;5057511;28;20227;-74
2020/12/21 07:44:00;;;;;;;9.57;6.47;;;;;;;5.56;100.00;101369.31;5028923;28;20170;-75
2020/12/21 07:46:26;;;;;;;14.00;7.00;;;;;;;5.54;100.00;101371.41;5048955;28;20666;-73
2020/12/21 07:48:56;;;;;;;12.07;7.03;;;;;;;5.53;100.00;101373.28;5050615;28;20187;-74
2020/12/21 07:51:22;;;;;;;13.17;7.13;;;;;;;5.50;100.00;101372.91;5065411;28;20280;-73
2020/12/21 07:53:55;;;;;;;13.60;7.33;;;;;;;5.59;100.00;101376.97;5031225;28;20203;-73
2020/12/21 07:56:23;;;;;;;14.27;6.83;;;;;;;5.61;100.00;101391.03;5062686;28;20336;-74
2020/12/21 07:58:50;;;;;;;13.27;6.80;;;;;;;5.63;100.00;101378.16;5063313;28;20357;-74
2020/12/21 08:01:20;;;;;;;15.33;7.10;;;;;;;5.50;100.00;101372.91;5063440;28;20208;-75
2020/12/21 08:03:46;;;;;;;11.97;6.77;;;;;;;5.53;100.00;101378.69;5036795;28;20183;-74
2020/12/21 08:06:16;;;;;;;13.43;7.20;;;;;;;5.54;100.00;101366.84;5055231;28;20215;-74
2020/12/21 08:08:42;;;;;;;16.27;7.27;;;;;;;5.46;100.00;101366.31;5041576;28;20180;-74
2020/12/21 08:11:14;;;;;;;14.53;7.77;;;;;;;5.42;100.00;101375.88;5051230;28;20235;-74
2020/12/21 08:13:50;;;;;;;15.53;8.33;;;;;;;5.64;100.00;101369.03;5019148;28;20720;-75
2020/12/21 08:16:17;;;;;;;9.23;7.13;;;;;;;5.70;100.00;101366.28;5037652;28;20224;-75
2020/12/21 08:18:50;;;;;;;15.73;7.90;;;;;;;5.58;100.00;101361.84;5039612;28;20187;-74
2020/12/21 08:21:15;;;;;;;15.37;7.70;;;;;;;5.54;100.00;101363.34;5071161;28;20298;-75
2020/12/21 08:23:41;;;;;;;13.27;7.23;;;;;;;5.74;100.00;101361.28;5069842;28;20270;-75
2020/12/21 08:26:13;;;;;;;11.00;7.30;;;;;;;5.77;100.00;101359.78;5047752;28;20246;-75
2020/12/21 08:28:39;;;;;;;15.20;8.30;;;;;;;5.66;100.00;101356.16;5038691;28;20182;-75
2020/12/21 08:31:14;;;;;;;17.20;8.30;;;;;;;5.82;100.00;101354.56;5034967;28;20218;-75
2020/12/21 08:33:55;;;;;;;15.53;7.70;;;;;;;5.80;100.00;101353.94;5051094;28;20232;-75
2020/12/21 08:36:25;;;;;;;11.70;7.97;;;;;;;5.98;100.00;101356.63;5026284;28;20250;-75
2020/12/21 08:39:03;;;;;;;16.17;7.87;;;;;;;6.07;100.00;101363.38;5019670;28;20202;-74
2020/12/21 08:41:35;;;;;;;11.73;7.67;;;;;;;5.79;100.00;101357.69;5034533;28;20688;-74
2020/12/21 08:44:06;;;;;;;12.67;7.77;;;;;;;5.98;100.00;101362.03;5019347;28;20800;-74
2020/12/21 08:46:35;;;;;;;11.97;7.33;;;;;;;6.10;100.00;101354.84;5052627;28;20250;-75
2020/12/21 08:49:00;;;;;;;10.80;6.43;;;;;;;6.17;100.00;101366.34;5051625;28;20661;-74
2020/12/21 08:51:26;;;;;;;15.60;6.93;;;;;;;6.25;100.00;101358.78;5047253;28;20280;-73
2020/12/21 08:53:53;;;;;;;9.80;7.30;;;;;;;6.41;100.00;101357.31;5054871;28;20283;-76
2020/12/21 08:56:18;;;;;;;13.37;7.00;;;;;;;6.50;100.00;101366.75;5069374;28;20229;-74
2020/12/21 08:58:44;;;;;;;11.47;6.77;;;;;;;6.68;100.00;101365.66;5071599;28;20179;-74
2020/12/21 09:01:10;;;;;;;10.70;6.10;;;;;;;6.73;100.00;101360.38;5053677;28;20222;-74
2020/12/21 09:03:36;;;;;;;11.10;6.53;;;;;;;6.92;100.00;101356.56;5055877;28;20183;-75
2020/12/21 09:06:02;;;;;;;11.07;6.07;;;;;;;6.85;100.00;101355.88;5088884;28;20305;-74
2020/12/21 09:08:30;;;;;;;10.40;6.23;;;;;;;6.85;100.00;101355.88;5091620;28;20704;-74
2020/12/21 09:10:55;;;;;;;9.80;6.13;;;;;;;6.86;100.00;101352.09;5073989;28;20229;-74
2020/12/21 09:13:21;;;;;;;13.13;6.20;;;;;;;6.96;100.00;101349.66;5059029;28;20214;-75
2020/12/21 09:15:47;;;;;;;7.87;5.50;;;;;;;6.85;100.00;101355.00;5090700;28;20229;-76
2020/12/21 09:18:14;;;;;;;9.50;5.40;;;;;;;6.98;100.00;101363.75;5054921;28;20182;-74
2020/12/21 09:20:43;;;;;;;13.23;6.37;;;;;;;6.96;100.00;101363.16;5070742;28;20696;-75
2020/12/21 09:23:08;;;;;;;10.60;5.10;;;;;;;7.03;100.00;101347.66;5021893;28;20265;-74
2020/12/21 09:25:34;;;;;;;10.07;5.10;;;;;;;7.24;99.54;101355.22;5036921;28;20755;-74
2020/12/21 09:28:00;;;;;;;9.20;5.40;;;;;;;7.12;100.00;101349.78;5054129;28;20183;-75
2020/12/21 09:30:25;;;;;;;14.07;5.33;;;;;;;7.25;100.00;101346.03;5052288;28;20222;-74
2020/12/21 09:32:51;;;;;;;11.83;5.00;;;;;;;7.18;100.00;101356.13;5066498;28;20226;-73
2020/12/21 09:35:17;;;;;;;9.33;4.50;;;;;;;7.19;100.00;101349.69;5069859;28;20279;-75
2020/12/21 09:37:43;;;;;;;8.07;4.87;;;;;;;7.32;98.79;101345.69;5048145;28;20679;-75
2020/12/21 09:40:09;;;;;;;9.03;4.73;;;;;;;7.25;98.79;101340.66;5051814;28;20214;-75
2020/12/21 09:42:37;;;;;;;8.47;4.17;;;;;;;7.36;98.29;101338.78;5036273;28;20529;-76
2020/12/21 09:45:03;;;;;;;10.93;5.83;;;;;;;7.22;99.49;101341.13;5055503;28;20553;-73
2020/12/21 09:47:29;;;;;;;9.93;4.20;;;;;;;7.52;97.77;101338.06;5043031;28;20291;-75
2020/12/21 09:49:54;;;;;;;10.90;4.13;;;;;;;7.62;96.99;101330.19;5070618;28;20187;-74
2020/12/21 09:52:24;;;;;;;7.53;3.87;;;;;;;7.47;97.50;101335.25;5070277;28;20219;-74
2020/12/21 09:54:52;;;;;;;5.63;3.90;;;;;;;7.62;96.16;101327.50;5021156;28;20183;-74
2020/12/21 09:57:18;;;;;;;7.23;3.63;;;;;;;7.69;95.62;101320.06;5070886;28;20223;-74
2020/12/21 09:59:48;;;;;;;7.63;3.63;;;;;;;7.71;94.78;101326.06;5038012;28;20194;-74
2020/12/21 10:02:14;;;;;;;6.43;3.23;;;;;;;7.69;95.98;101317.34;5040212;28;20229;-75
2020/12/21 10:04:42;;;;;;;7.10;3.93;;;;;;;7.69;94.88;101322.75;5060695;28;20178;-76
2020/12/21 10:07:18;;;;;;;6.77;3.90;;;;;;;7.73;94.68;101319.38;5074398;28;20228;-74
2020/12/21 10:09:43;;;;;;;6.97;3.80;;;;;;;7.85;94.85;101324.75;5058229;28;20190;-74
2020/12/21 10:12:09;;;;;;;7.90;3.97;;;;;;;7.90;93.81;101320.25;5091731;28;20233;-74
2020/12/21 10:14:37;;;;;;;5.60;3.80;;;;;;;7.92;93.34;101311.91;5090562;28;20178;-74
2020/12/21 10:17:03;;;;;;;8.03;3.60;;;;;;;7.81;94.10;101305.47;5063494;28;20587;-74
2020/12/21 10:19:31;;;;;;;6.63;3.73;;;;;;;7.84;93.67;101309.59;5050752;28;20171;-75
2020/12/21 10:21:58;;;;;;;6.23;3.60;;;;;;;7.92;93.56;101306.50;5048860;28;20303;-73
2020/12/21 10:24:31;;;;;;;5.93;3.53;;;;;;;7.95;92.02;101303.31;5054332;28;20312;-73
2020/12/21 10:27:02;;;;;;;6.37;3.40;;;;;;;7.97;92.92;101298.50;5069693;28;20284;-74
2020/12/21 10:29:28;;;;;;;6.40;3.63;;;;;;;8.04;92.20;101294.59;5053898;28;20194;-73
2020/12/21 10:31:57;;;;;;;6.77;3.70;;;;;;;8.08;92.26;101291.16;5054571;28;20211;-74
2020/12/21 10:34:22;;;;;;;8.97;3.60;;;;;;;8.10;92.39;101296.38;5041084;28;20233;-73
2020/12/21 10:36:52;;;;;;;5.83;3.73;;;;;;;8.23;92.60;101288.78;5053344;28;20230;-72
2020/12/21 10:39:18;;;;;;;8.53;3.50;;;;;;;8.39;91.54;101277.19;5039091;28;20669;-73
2020/12/21 10:41:48;;;;;;;5.57;3.47;;;;;;;8.37;89.96;101273.06;5072365;28;20666;-73
2020/12/21 10:44:16;;;;;;;6.67;3.33;;;;;;;8.28;90.78;101278.06;5056089;28;20185;-73
2020/12/21 10:46:42;;;;;;;7.00;3.63;;;;;;;8.41;89.89;101274.25;5065555;28;20310;-73
2020/12/21 10:49:10;;;;;;;6.43;3.57;;;;;;;8.39;90.19;101255.53;5053492;28;20191;-74
2020/12/21 10:51:38;;;;;;;5.07;3.00;;;;;;;8.47;89.53;101258.66;5052261;28;20331;-74
2020/12/21 10:54:06;;;;;;;7.60;3.60;;;;;;;8.52;89.64;101247.91;5052129;28;20199;-74
2020/12/21 10:56:34;;;;;;;5.43;2.97;;;;;;;8.57;88.71;101242.59;5026540;28;20227;-74
2020/12/21 10:59:00;;;;;;;5.90;3.33;;;;;;;8.60;89.00;101242.09;5033070;28;20619;-74
2020/12/21 11:01:26;;;;;;;6.17;3.90;;;;;;;8.52;88.62;101239.81;5030952;28;20212;-73
2020/12/21 11:03:54;;;;;;;7.57;3.00;;;;;;;8.70;87.81;101236.03;5037688;28;20179;-74
2020/12/21 11:06:22;;;;;;;7.80;3.00;;;;;;;8.72;88.33;101228.47;5051822;28;20257;-73
2020/12/21 11:08:48;;;;;;;5.97;2.90;;;;;;;8.63;88.29;101227.25;5053050;28;20199;-73
2020/12/21 11:11:14;;;;;;;8.47;2.90;;;;;;;8.94;87.61;101225.59;5068617;28;20305;-74
2020/12/21 11:13:41;;;;;;;5.70;2.50;;;;;;;8.83;87.15;101217.56;5069587;28;20210;-74
2020/12/21 11:16:10;;;;;;;5.83;2.70;;;;;;;8.87;87.76;101221.44;5052739;28;20237;-73
2020/12/21 11:18:38;;;;;;;5.97;2.80;;;;;;;8.88;86.87;101213.06;5069406;28;20707;-73
2020/12/21 11:21:04;;;;;;;6.00;3.17;;;;;;;8.79;87.51;101215.59;5055984;28;20254;-74
2020/12/21 11:23:30;;;;;;;15.50;10.83;;;;;;;8.97;88.19;101208.03;5053685;28;20202;-74
2020/12/21 11:25:55;;;;;;;9.80;5.20;;;;;;;9.12;87.99;101198.25;5057477;28;20210;-73